Time;durP1;ratioP1;P1;durP2;ratioP2;P2;SDS_P1;SDS_P2;PMS_P1;PMS_P2;Temp;Humidity;BMP_temperature;BMP_pressure;BME280_temperature;BME280_humidity;BME280_pressure;Samples;Min_cycle;Max_cycle;Signal;HPM_P1;HPM_P2
2022/01/21 00:00:29;;;;;;;23.00;4.63;;;;;;;1.38;100.00;103309.34;5241714;28;20100;-70
2022/01/21 00:03:00;;;;;;;10.25;3.50;;;;;;;1.41;100.00;103314.50;5245263;28;20037;-70
2022/01/21 00:05:31;;;;;;;14.52;3.97;;;;;;;1.45;100.00;103316.19;5241267;28;20025;-71
2022/01/21 00:08:03;;;;;;;18.25;4.35;;;;;;;1.41;100.00;103310.19;5241420;28;20025;-71
2022/01/21 00:10:34;;;;;;;19.02;4.65;;;;;;;1.37;100.00;103315.38;5243231;28;20079;-70
2022/01/21 00:13:15;;;;;;;17.70;4.38;;;;;;;1.37;100.00;103323.13;5241479;28;20511;-71
2022/01/21 00:15:46;;;;;;;18.02;3.47;;;;;;;1.34;100.00;103312.81;5242468;28;20044;-71
2022/01/21 00:18:19;;;;;;;17.77;3.55;;;;;;;1.39;100.00;103318.81;5244549;28;20033;-71
2022/01/21 00:32:11;;;;;;;14.95;3.92;;;;;;;1.30;100.00;103316.28;5243057;28;20469;-71
2022/01/21 00:34:42;;;;;;;14.35;4.28;;;;;;;1.29;100.00;103317.13;5241022;28;20120;-70
2022/01/21 00:37:13;;;;;;;15.18;4.00;;;;;;;1.21;100.00;103312.91;5242178;28;20461;-70
2022/01/21 00:39:51;;;;;;;17.33;3.30;;;;;;;1.24;100.00;103308.56;5242670;28;20067;-70
2022/01/21 00:44:59;;;;;;;19.35;3.67;;;;;;;1.20;100.00;103300.84;5242228;28;20044;-70
2022/01/21 00:47:31;;;;;;;17.52;3.28;;;;;;;1.18;100.00;103302.59;5240646;28;20028;-71
2022/01/21 00:50:03;;;;;;;18.58;2.92;;;;;;;1.19;100.00;103303.44;5240801;28;20495;-71
2022/01/21 00:52:35;;;;;;;18.65;3.80;;;;;;;1.10;100.00;103298.31;5242653;28;20132;-70
2022/01/21 00:55:08;;;;;;;14.18;3.22;;;;;;;1.18;100.00;103312.91;5241014;28;20569;-71
2022/01/21 00:57:39;;;;;;;14.02;2.95;;;;;;;1.13;100.00;103314.66;5241389;28;20037;-71
2022/01/21 01:00:12;;;;;;;17.77;3.28;;;;;;;1.12;100.00;103317.25;5241484;28;20037;-70
2022/01/21 01:02:44;;;;;;;17.15;3.47;;;;;;;1.12;100.00;103319.84;5242603;28;20064;-70
2022/01/21 01:05:15;;;;;;;13.55;2.92;;;;;;;1.14;100.00;103325.88;5242146;28;20030;-70
2022/01/21 01:07:46;;;;;;;15.15;2.85;;;;;;;1.15;100.00;103328.44;5239821;28;20451;-70
2022/01/21 01:10:24;;;;;;;14.48;3.75;;;;;;;1.12;100.00;103328.44;5242720;28;20040;-71
2022/01/21 01:13:02;;;;;;;13.10;3.22;;;;;;;1.11;100.00;103331.03;5241091;28;20112;-70
2022/01/21 01:21:13;;;;;;;14.15;3.25;;;;;;;1.00;100.00;103314.75;5242054;28;20045;-70
2022/01/21 01:24:02;;;;;;;13.43;3.50;;;;;;;0.98;100.00;103314.72;5239553;28;20029;-70
2022/01/21 01:29:26;;;;;;;12.48;3.15;;;;;;;1.00;100.00;103307.84;5246864;28;20462;-70
2022/01/21 01:31:57;;;;;;;13.48;3.63;;;;;;;0.96;100.00;103311.31;5246553;28;20041;-70
2022/01/21 01:34:28;;;;;;;15.18;3.15;;;;;;;0.95;100.00;103307.88;5246683;28;20470;-71
2022/01/21 01:37:05;;;;;;;11.65;3.30;;;;;;;1.09;100.00;103299.19;5244848;28;20034;-70
2022/01/21 01:39:43;;;;;;;15.73;3.30;;;;;;;1.15;100.00;103300.03;5246020;28;20036;-71
2022/01/21 01:50:44;;;;;;;10.10;2.95;;;;;;;1.18;100.00;103304.31;5243855;28;20042;-70
2022/01/21 01:53:18;;;;;;;14.98;3.10;;;;;;;1.18;100.00;103307.75;5244955;28;20503;-70
2022/01/21 01:55:49;;;;;;;11.55;3.30;;;;;;;1.15;100.00;103305.19;5241830;28;20048;-71
2022/01/21 01:58:21;;;;;;;12.50;3.22;;;;;;;1.16;100.00;103298.28;5246736;28;20021;-70
2022/01/21 02:00:56;;;;;;;14.93;2.78;;;;;;;1.18;100.00;103301.75;5245354;28;20494;-71
2022/01/21 02:03:30;;;;;;;12.02;3.05;;;;;;;1.21;100.00;103293.94;5244830;28;20491;-71
2022/01/21 02:06:02;;;;;;;17.60;3.50;;;;;;;1.15;100.00;103284.53;5243951;28;20664;-71
2022/01/21 02:08:34;;;;;;;15.20;3.42;;;;;;;1.18;100.00;103289.69;5243288;28;20029;-70
2022/01/21 02:11:06;;;;;;;17.77;3.08;;;;;;;1.20;100.00;103300.84;5244084;28;20033;-70
2022/01/21 02:13:47;;;;;;;17.20;3.50;;;;;;;1.19;100.00;103293.97;5245328;28;20068;-70
2022/01/21 02:21:48;;;;;;;14.07;3.35;;;;;;;1.17;100.00;103303.44;5246694;28;20422;-69
2022/01/21 02:24:24;;;;;;;17.23;3.65;;;;;;;1.24;100.00;103298.25;5244092;28;20032;-70
2022/01/21 02:26:56;;;;;;;11.18;2.40;;;;;;;1.16;100.00;103296.56;5245544;28;20033;-70
2022/01/21 02:29:38;;;;;;;18.48;4.10;;;;;;;1.18;100.00;103302.59;5244726;28;20033;-71
2022/01/21 02:32:09;;;;;;;16.55;3.00;;;;;;;1.20;100.00;103298.25;5244584;28;20064;-71
2022/01/21 02:34:41;;;;;;;14.82;2.97;;;;;;;1.19;100.00;103295.69;5245492;28;20566;-71
2022/01/21 02:37:16;;;;;;;15.63;4.00;;;;;;;1.20;100.00;103302.56;5240807;28;20049;-71
2022/01/21 02:39:48;;;;;;;17.52;3.83;;;;;;;1.11;100.00;103290.59;5229319;28;20532;-71
2022/01/21 02:42:20;;;;;;;12.23;3.13;;;;;;;1.16;100.00;103293.13;5245089;28;20044;-70
2022/01/21 02:44:51;;;;;;;13.30;2.90;;;;;;;1.18;100.00;103291.41;5242572;28;20017;-69
2022/01/21 02:47:22;;;;;;;15.18;3.28;;;;;;;1.18;100.00;103294.84;5244635;28;20132;-70
2022/01/21 02:49:54;;;;;;;14.75;3.10;;;;;;;1.18;100.00;103304.31;5243902;28;20028;-70
2022/01/21 02:52:28;;;;;;;15.50;3.75;;;;;;;1.23;100.00;103305.13;5237232;28;20206;-70
2022/01/21 02:55:00;;;;;;;12.55;2.72;;;;;;;1.18;100.00;103305.19;5242923;28;20446;-70
2022/01/21 02:57:31;;;;;;;13.20;3.30;;;;;;;1.20;100.00;103300.84;5244169;28;20365;-70
2022/01/21 03:00:05;;;;;;;11.30;2.63;;;;;;;1.19;100.00;103306.88;5242943;28;20357;-71
2022/01/21 03:02:36;;;;;;;11.70;2.47;;;;;;;1.16;100.00;103314.63;5243362;28;20394;-70
2022/01/21 03:05:13;;;;;;;37.47;4.35;;;;;;;1.15;100.00;103307.78;5242892;28;20103;-69
2022/01/21 03:07:45;;;;;;;13.93;3.17;;;;;;;1.13;100.00;103318.97;5243464;28;20348;-70
2022/01/21 03:10:17;;;;;;;11.03;2.90;;;;;;;1.16;100.00;103312.06;5243920;28;20032;-70
2022/01/21 03:12:48;;;;;;;19.45;3.15;;;;;;;1.17;100.00;103308.59;5242860;28;20098;-69
2022/01/21 03:15:20;;;;;;;15.23;2.80;;;;;;;1.11;100.00;103310.38;5245046;28;20057;-70
2022/01/21 03:17:51;;;;;;;12.13;2.92;;;;;;;1.13;100.00;103311.22;5242576;28;20041;-71
2022/01/21 03:20:22;;;;;;;12.15;2.40;;;;;;;1.10;100.00;103314.69;5242220;28;20029;-70
2022/01/21 03:22:54;;;;;;;12.98;3.25;;;;;;;1.11;100.00;103313.81;5243860;28;20493;-70
2022/01/21 03:25:25;;;;;;;12.63;2.35;;;;;;;1.12;100.00;103312.09;5244519;28;20333;-69
2022/01/21 03:27:56;;;;;;;19.95;3.05;;;;;;;1.07;100.00;103312.13;5243276;28;20021;-70
2022/01/21 03:30:27;;;;;;;12.25;2.80;;;;;;;1.09;100.00;103325.88;5244158;28;20048;-69
2022/01/21 03:32:59;;;;;;;10.75;3.05;;;;;;;1.10;100.00;103319.84;5244146;28;20029;-70
2022/01/21 03:35:31;;;;;;;13.32;2.95;;;;;;;1.13;100.00;103337.88;5242654;28;20021;-70
2022/01/21 03:38:04;;;;;;;14.30;3.15;;;;;;;1.12;100.00;103323.28;5241802;28;20100;-70
2022/01/21 03:40:35;;;;;;;8.23;2.33;;;;;;;1.20;100.00;103329.25;5241799;28;20486;-70
2022/01/21 03:43:06;;;;;;;12.52;2.58;;;;;;;1.20;100.00;103338.72;5242972;28;20040;-70
2022/01/21 03:45:38;;;;;;;10.52;2.42;;;;;;;1.17;100.00;103329.25;5242574;28;20021;-70
2022/01/21 03:48:10;;;;;;;13.13;2.65;;;;;;;1.11;100.00;103331.88;5239513;28;20029;-70
2022/01/21 03:50:43;;;;;;;12.95;3.45;;;;;;;1.17;100.00;103325.81;5243727;28;20033;-69
2022/01/21 03:53:14;;;;;;;11.85;2.97;;;;;;;1.11;100.00;103326.72;5241426;28;20489;-71
2022/01/21 03:55:47;;;;;;;12.00;2.78;;;;;;;1.08;100.00;103328.47;5233961;28;20037;-70
2022/01/21 03:58:18;;;;;;;13.07;2.63;;;;;;;1.08;100.00;103329.31;5241496;28;20029;-70
2022/01/21 04:00:54;;;;;;;11.30;2.70;;;;;;;1.17;100.00;103333.56;5243524;28;20032;-70
2022/01/21 04:03:27;;;;;;;10.35;2.22;;;;;;;1.06;100.00;103331.06;5242434;28;20541;-70
2022/01/21 04:05:58;;;;;;;12.43;3.05;;;;;;;1.04;100.00;103326.78;5242200;28;20036;-70
2022/01/21 04:08:29;;;;;;;16.38;3.88;;;;;;;1.06;100.00;103332.75;5243593;28;20470;-70
2022/01/21 04:11:01;;;;;;;11.80;2.83;;;;;;;1.06;100.00;103333.66;5243258;28;20041;-71
2022/01/21 04:13:34;;;;;;;9.48;2.70;;;;;;;1.05;100.00;103331.06;5242473;28;20108;-70
2022/01/21 04:16:05;;;;;;;13.23;2.10;;;;;;;1.04;100.00;103326.78;5242077;28;20084;-70
2022/01/21 04:18:37;;;;;;;11.20;2.33;;;;;;;1.02;100.00;103324.19;5241737;28;20105;-71
2022/01/21 04:21:08;;;;;;;14.02;2.20;;;;;;;1.02;100.00;103328.47;5241430;28;20029;-70
2022/01/21 04:23:39;;;;;;;12.93;2.70;;;;;;;1.01;100.00;103325.06;5242842;28;20048;-69
2022/01/21 04:26:11;;;;;;;10.57;2.70;;;;;;;0.98;100.00;103317.31;5241070;28;20040;-70
2022/01/21 04:28:42;;;;;;;10.82;2.00;;;;;;;0.99;100.00;103325.94;5241517;28;20013;-70
2022/01/21 04:31:13;;;;;;;11.60;2.53;;;;;;;0.98;100.00;103327.63;5240170;28;20064;-69
2022/01/21 04:33:45;;;;;;;11.27;2.10;;;;;;;1.01;100.00;103322.47;5241466;28;20099;-70
2022/01/21 04:36:16;;;;;;;14.80;3.47;;;;;;;0.97;100.00;103320.78;5241473;28;20041;-70
2022/01/21 04:38:48;;;;;;;10.23;2.33;;;;;;;0.96;100.00;103319.06;5240394;28;20056;-71
2022/01/21 04:41:38;;;;;;;11.68;2.20;;;;;;;0.97;100.00;103321.63;5243653;28;20108;-70
2022/01/21 04:47:18;;;;;;;10.77;2.00;;;;;;;1.01;100.00;103324.19;5240899;28;20025;-70
2022/01/21 04:49:50;;;;;;;9.60;2.25;;;;;;;0.94;100.00;103321.63;5243418;28;20037;-70
2022/01/21 04:52:23;;;;;;;11.00;2.17;;;;;;;1.04;100.00;103322.47;5241866;28;20029;-71
2022/01/21 04:54:54;;;;;;;20.63;2.80;;;;;;;0.99;100.00;103324.22;5242804;28;20033;-71
2022/01/21 04:57:25;;;;;;;11.55;2.65;;;;;;;1.01;100.00;103319.88;5241571;28;20557;-70
2022/01/21 04:59:57;;;;;;;13.23;2.38;;;;;;;1.03;100.00;103322.47;5240413;28;20061;-71
2022/01/21 05:02:29;;;;;;;9.27;2.25;;;;;;;1.05;100.00;103318.16;5240304;28;20123;-70
2022/01/21 05:05:00;;;;;;;9.27;2.50;;;;;;;1.04;100.00;103316.44;5240398;28;20025;-70
2022/01/21 05:07:35;;;;;;;14.18;2.40;;;;;;;1.02;100.00;103313.00;5241105;28;20402;-71
2022/01/21 05:10:07;;;;;;;8.82;2.45;;;;;;;1.01;100.00;103308.72;5241165;28;20033;-69
2022/01/21 05:12:39;;;;;;;10.43;2.33;;;;;;;1.04;100.00;103301.81;5241031;28;20036;-70
2022/01/21 05:18:04;;;;;;;10.23;2.53;;;;;;;1.05;100.00;103313.84;5216797;28;20041;-71
2022/01/21 05:20:35;;;;;;;12.65;2.50;;;;;;;1.07;100.00;103312.13;5239570;28;20025;-70
2022/01/21 05:23:07;;;;;;;8.70;2.70;;;;;;;1.01;100.00;103301.81;5240877;28;20017;-70
2022/01/21 05:25:38;;;;;;;11.65;3.10;;;;;;;1.09;100.00;103314.69;5242028;28;20032;-69
2022/01/21 05:28:09;;;;;;;10.30;2.75;;;;;;;1.10;100.00;103309.53;5233477;28;20059;-69
2022/01/21 05:30:41;;;;;;;18.13;3.85;;;;;;;1.10;100.00;103324.13;5240743;28;20082;-70
2022/01/21 05:33:12;;;;;;;11.52;3.13;;;;;;;1.07;100.00;103324.19;5240974;28;20037;-70
2022/01/21 05:35:43;;;;;;;11.55;2.88;;;;;;;1.09;100.00;103319.84;5242763;28;20029;-70
2022/01/21 05:38:15;;;;;;;11.65;3.03;;;;;;;1.04;100.00;103319.88;5242516;28;20041;-70
2022/01/21 05:40:47;;;;;;;17.27;3.95;;;;;;;1.04;100.00;103332.78;5241853;28;20036;-70
2022/01/21 05:43:18;;;;;;;11.10;3.58;;;;;;;1.03;100.00;103330.22;5241062;28;20025;-70
2022/01/21 05:48:39;;;;;;;11.35;3.47;;;;;;;0.92;100.00;103317.38;5240509;28;20057;-71
2022/01/21 05:51:10;;;;;;;12.40;3.20;;;;;;;0.91;100.00;103321.66;5242365;28;20057;-70
2022/01/21 05:53:42;;;;;;;13.93;3.85;;;;;;;0.92;100.00;103317.38;5242654;28;20029;-69
2022/01/21 05:56:13;;;;;;;18.17;4.82;;;;;;;0.91;100.00;103323.38;5240936;28;20033;-70
2022/01/21 05:58:45;;;;;;;12.20;3.83;;;;;;;0.91;100.00;103324.25;5224593;28;20597;-69
2022/01/21 06:01:16;;;;;;;14.77;4.57;;;;;;;0.89;100.00;103325.13;5241909;28;20051;-70
2022/01/21 06:03:49;;;;;;;11.23;3.70;;;;;;;0.89;100.00;103330.28;5242023;28;20017;-70
2022/01/21 06:06:20;;;;;;;12.23;3.97;;;;;;;0.89;100.00;103325.13;5239629;28;20025;-71
2022/01/21 06:08:51;;;;;;;9.52;3.88;;;;;;;0.88;100.00;103333.72;5241856;28;20032;-70
2022/01/21 06:11:23;;;;;;;10.35;3.85;;;;;;;0.75;100.00;103314.00;5245075;28;20026;-71
2022/01/21 06:13:54;;;;;;;11.70;3.67;;;;;;;0.84;100.00;103325.16;5243929;28;20025;-69
2022/01/21 06:16:26;;;;;;;9.40;3.85;;;;;;;0.83;100.00;103338.03;5245628;28;20049;-69
2022/01/21 06:18:57;;;;;;;13.77;3.70;;;;;;;0.82;100.00;103344.06;5244070;28;20037;-70
2022/01/21 06:21:28;;;;;;;12.68;4.57;;;;;;;0.84;100.00;103345.78;5246846;28;20025;-69
2022/01/21 06:23:59;;;;;;;15.73;4.32;;;;;;;0.83;100.00;103345.78;5244736;28;20040;-70
2022/01/21 06:26:31;;;;;;;10.70;4.07;;;;;;;0.84;100.00;103347.50;5244353;28;20655;-71
2022/01/21 06:29:04;;;;;;;12.55;4.53;;;;;;;0.84;100.00;103350.09;5242546;28;20065;-71
2022/01/21 06:31:35;;;;;;;9.60;3.88;;;;;;;0.84;100.00;103352.69;5242734;28;20036;-71
2022/01/21 06:34:06;;;;;;;14.35;4.90;;;;;;;0.84;100.00;103366.44;5243013;28;20478;-71
2022/01/21 06:36:37;;;;;;;14.05;4.03;;;;;;;0.87;100.00;103360.38;5243196;28;20017;-71
2022/01/21 06:39:09;;;;;;;11.85;4.18;;;;;;;0.86;100.00;103369.00;5244688;28;20056;-71
2022/01/21 06:41:40;;;;;;;13.27;4.15;;;;;;;0.85;100.00;103375.03;5243842;28;20081;-71
2022/01/21 06:44:12;;;;;;;11.45;4.43;;;;;;;0.85;100.00;103373.31;5245255;28;20029;-71
2022/01/21 06:46:44;;;;;;;15.73;4.70;;;;;;;0.85;100.00;103373.31;5243672;28;20025;-71
2022/01/21 06:49:15;;;;;;;13.20;4.45;;;;;;;0.92;100.00;103389.63;5228090;28;20022;-71
2022/01/21 06:51:47;;;;;;;10.77;4.25;;;;;;;0.97;100.00;103381.00;5242255;28;20029;-71
2022/01/21 06:54:18;;;;;;;14.45;5.20;;;;;;;1.06;100.00;103390.44;5243244;28;20025;-71
2022/01/21 06:56:49;;;;;;;9.80;5.40;;;;;;;1.11;100.00;103382.66;5244606;28;20017;-70
2022/01/21 06:59:21;;;;;;;17.65;5.90;;;;;;;1.15;100.00;103382.66;5242470;28;20486;-71
2022/01/21 07:01:52;;;;;;;12.90;6.18;;;;;;;1.19;100.00;103380.91;5242521;28;20029;-70
2022/01/21 07:04:23;;;;;;;10.98;6.05;;;;;;;1.24;100.00;103386.03;5243507;28;20379;-71
2022/01/21 07:06:57;;;;;;;16.08;6.70;;;;;;;1.29;100.00;103389.44;5243443;28;20017;-70
2022/01/21 07:09:29;;;;;;;13.90;6.40;;;;;;;1.31;100.00;103400.66;5244168;28;20033;-70
2022/01/21 07:12:00;;;;;;;14.35;7.13;;;;;;;1.36;100.00;103396.31;5245125;28;20032;-70
2022/01/21 07:14:31;;;;;;;12.35;6.75;;;;;;;1.42;100.00;103406.63;5243354;28;20118;-71
2022/01/21 07:17:03;;;;;;;12.27;6.72;;;;;;;1.45;100.00;103406.59;5242663;28;20017;-73
2022/01/21 07:19:35;;;;;;;16.27;7.15;;;;;;;1.45;100.00;103402.28;5241305;28;20041;-71
2022/01/21 07:22:06;;;;;;;12.75;6.10;;;;;;;1.53;100.00;103401.38;5241770;28;20017;-71
2022/01/21 07:24:37;;;;;;;15.50;6.88;;;;;;;1.56;100.00;103402.22;5241954;28;20078;-71
2022/01/21 07:27:08;;;;;;;11.30;5.63;;;;;;;1.62;100.00;103403.91;5243835;28;20408;-71
2022/01/21 07:29:41;;;;;;;10.27;5.90;;;;;;;1.66;100.00;103393.53;5242172;28;20025;-71
2022/01/21 07:32:12;;;;;;;18.27;6.63;;;;;;;1.69;100.00;103401.28;5242679;28;20116;-71
2022/01/21 07:34:43;;;;;;;12.25;6.00;;;;;;;1.70;100.00;103412.47;5241925;28;20124;-70
2022/01/21 07:37:15;;;;;;;13.35;5.97;;;;;;;1.74;100.00;103421.06;5242654;28;20049;-71
2022/01/21 07:39:46;;;;;;;15.82;6.05;;;;;;;1.70;100.00;103417.63;5243026;28;20268;-71
2022/01/21 07:42:18;;;;;;;14.05;6.38;;;;;;;1.82;100.00;103424.44;5227732;28;20033;-70
2022/01/21 07:44:49;;;;;;;9.43;5.57;;;;;;;1.83;100.00;103426.19;5241478;28;20036;-71
2022/01/21 07:47:21;;;;;;;15.07;6.28;;;;;;;1.79;100.00;103404.66;5242461;28;20021;-70
2022/01/21 07:49:52;;;;;;;12.48;5.82;;;;;;;1.86;100.00;103408.06;5234369;28;20467;-71
2022/01/21 07:52:23;;;;;;;8.68;6.03;;;;;;;1.86;100.00;103418.41;5241670;28;20402;-70
2022/01/21 07:54:55;;;;;;;19.50;5.95;;;;;;;1.85;100.00;103425.28;5241600;28;20075;-71
2022/01/21 07:57:26;;;;;;;14.60;5.78;;;;;;;1.84;100.00;103417.56;5238176;28;20025;-70
2022/01/21 07:59:57;;;;;;;9.30;6.00;;;;;;;1.85;100.00;103421.84;5239985;28;20035;-71
2022/01/21 08:02:30;;;;;;;9.77;5.60;;;;;;;1.86;100.00;103421.00;5239414;28;20028;-71
2022/01/21 08:05:04;;;;;;;16.02;6.28;;;;;;;1.84;100.00;103395.13;5240163;28;20083;-70
2022/01/21 08:07:36;;;;;;;13.05;5.55;;;;;;;1.81;100.00;103394.31;5239025;28;20055;-70
2022/01/21 08:10:07;;;;;;;13.38;5.55;;;;;;;1.81;100.00;103399.47;5242770;28;20022;-71
2022/01/21 08:12:38;;;;;;;11.25;5.50;;;;;;;1.88;100.00;103407.16;5239581;28;20078;-70
2022/01/21 08:15:10;;;;;;;13.20;5.65;;;;;;;1.88;100.00;103386.50;5242648;28;20032;-71
2022/01/21 08:17:41;;;;;;;11.65;5.78;;;;;;;1.88;100.00;103389.06;5241502;28;20033;-71
2022/01/21 08:20:12;;;;;;;10.88;5.75;;;;;;;1.86;100.00;103392.56;5227941;28;20120;-70
2022/01/21 08:22:44;;;;;;;10.35;4.97;;;;;;;1.78;100.00;103383.97;5243467;28;20116;-71
2022/01/21 08:25:15;;;;;;;11.50;4.60;;;;;;;1.84;100.00;103394.28;5241308;28;20025;-71
2022/01/21 08:27:46;;;;;;;10.07;5.03;;;;;;;1.85;100.00;103383.06;5240568;28;20030;-71
2022/01/21 08:30:18;;;;;;;10.30;4.70;;;;;;;1.93;100.00;103381.28;5241027;28;20053;-71
2022/01/21 08:32:49;;;;;;;10.00;4.80;;;;;;;1.95;100.00;103376.97;5241581;28;20040;-71
2022/01/21 08:35:20;;;;;;;11.32;5.18;;;;;;;1.98;100.00;103387.28;5243490;28;20108;-71
2022/01/21 08:37:53;;;;;;;10.98;5.20;;;;;;;2.00;100.00;103392.44;5238899;28;20710;-71
2022/01/21 08:40:25;;;;;;;13.82;5.03;;;;;;;2.02;100.00;103396.75;5240587;28;20053;-71
2022/01/21 08:42:57;;;;;;;11.95;5.60;;;;;;;2.03;100.00;103402.75;5238621;28;20077;-70
2022/01/21 08:45:29;;;;;;;15.00;5.20;;;;;;;2.03;100.00;103403.63;5240961;28;20021;-71
2022/01/21 08:48:01;;;;;;;11.60;5.38;;;;;;;2.04;100.00;103405.31;5240132;28;20138;-71
2022/01/21 08:50:32;;;;;;;9.50;5.07;;;;;;;2.03;100.00;103398.44;5239648;28;20465;-70
2022/01/21 08:53:36;;;;;;;9.82;5.20;;;;;;;2.07;100.00;103401.88;5240014;28;20022;-70
2022/01/21 08:55:58;;;;;;;12.32;5.57;;;;;;;2.10;100.00;103409.59;5241042;28;20053;-70
2022/01/21 08:58:30;;;;;;;15.20;6.50;;;;;;;2.05;100.00;103399.31;5238005;28;20391;-71
2022/01/21 09:01:01;;;;;;;10.38;4.97;;;;;;;2.18;100.00;103413.84;5240179;28;20048;-71
2022/01/21 09:03:33;;;;;;;19.30;6.18;;;;;;;2.17;100.00;103419.88;5239252;28;20022;-71
2022/01/21 09:06:05;;;;;;;9.85;5.15;;;;;;;2.24;100.00;103415.53;5239898;28;20501;-72
2022/01/21 09:08:38;;;;;;;11.07;4.78;;;;;;;2.30;100.00;103404.25;5240765;28;20548;-72
2022/01/21 09:11:09;;;;;;;15.50;5.45;;;;;;;2.35;100.00;103381.78;5241318;28;20063;-71
2022/01/21 09:13:42;;;;;;;13.32;4.97;;;;;;;2.32;100.00;103372.34;5239358;28;20037;-71
2022/01/21 09:16:15;;;;;;;13.05;5.20;;;;;;;2.38;100.00;103364.50;5241440;28;20029;-71
2022/01/21 09:18:56;;;;;;;9.25;4.40;;;;;;;2.42;100.00;103363.63;5237967;28;20029;-72
2022/01/21 09:21:30;;;;;;;9.40;4.53;;;;;;;2.48;100.00;103369.59;5239718;28;20026;-72
2022/01/21 09:24:02;;;;;;;11.30;4.50;;;;;;;2.46;100.00;103364.41;5240262;28;20044;-71
2022/01/21 09:26:34;;;;;;;11.32;4.65;;;;;;;2.56;100.00;103367.78;5240132;28;20017;-71
2022/01/21 09:29:07;;;;;;;6.90;4.35;;;;;;;2.65;100.00;103375.44;5231791;28;20130;-70
2022/01/21 09:31:38;;;;;;;8.32;3.85;;;;;;;2.66;100.00;103383.19;5238054;28;20055;-70
2022/01/21 09:34:09;;;;;;;10.60;4.40;;;;;;;2.72;100.00;103386.56;5236805;28;20059;-71
2022/01/21 09:36:42;;;;;;;11.27;4.22;;;;;;;2.79;100.00;103377.88;5237081;28;20025;-72
2022/01/21 09:39:13;;;;;;;12.43;4.13;;;;;;;2.87;100.00;103381.22;5236449;28;20025;-71
2022/01/21 09:41:46;;;;;;;11.20;4.50;;;;;;;2.90;100.00;103386.38;5241266;28;20375;-72
2022/01/21 09:44:21;;;;;;;11.20;4.47;;;;;;;3.02;100.00;103388.81;5238152;28;20037;-72
2022/01/21 09:46:53;;;;;;;13.07;4.65;;;;;;;3.05;100.00;103388.78;5244878;28;20776;-72
2022/01/21 09:52:00;;;;;;;12.73;4.68;;;;;;;3.28;100.00;103400.56;5243904;28;20098;-72
2022/01/21 09:54:35;;;;;;;16.55;4.88;;;;;;;3.30;100.00;103399.69;5243699;28;20367;-70
2022/01/21 09:57:07;;;;;;;12.02;4.15;;;;;;;3.36;100.00;103404.78;5242833;28;20094;-72
2022/01/21 09:59:39;;;;;;;14.97;4.80;;;;;;;3.47;100.00;103406.38;5242175;28;20035;-71
2022/01/21 10:02:11;;;;;;;12.32;4.43;;;;;;;3.57;100.00;103405.38;5243865;28;20291;-71
2022/01/21 10:04:42;;;;;;;15.13;4.97;;;;;;;3.59;100.00;103401.00;5243436;28;20029;-72
2022/01/21 10:07:15;;;;;;;11.73;4.20;;;;;;;3.70;100.00;103419.00;5242439;28;20399;-71
2022/01/21 10:09:48;;;;;;;;;;;;;;;4.04;100.00;103417.59;5244968;28;20061;-71
2022/01/21 10:12:19;;;;;;;14.00;4.88;;;;;;;3.85;100.00;103423.97;5242745;28;19956;-70
2022/01/21 10:14:54;;;;;;;10.63;4.28;;;;;;;3.95;100.00;103420.34;5242517;28;20064;-72
2022/01/21 10:17:26;;;;;;;13.40;3.95;;;;;;;4.08;100.00;103432.22;5242214;28;20422;-71
2022/01/21 10:20:18;;;;;;;11.35;3.72;;;;;;;4.34;100.00;103433.53;5242635;28;20044;-71
2022/01/21 10:23:18;;;;;;;11.98;3.92;;;;;;;4.29;100.00;103443.16;5243624;28;20028;-70
2022/01/21 10:26:03;;;;;;;13.90;4.20;;;;;;;4.40;100.00;103449.03;5244282;28;20041;-72
2022/01/21 10:28:36;;;;;;;10.35;3.20;;;;;;;4.34;100.00;103446.53;5241184;28;20021;-70
2022/01/21 10:31:13;;;;;;;11.02;3.40;;;;;;;4.39;100.00;103445.56;5239003;28;20498;-71
2022/01/21 10:33:50;;;;;;;14.63;4.05;;;;;;;4.49;100.00;103440.22;5243040;28;20405;-71
2022/01/21 10:36:35;;;;;;;15.73;3.50;;;;;;;4.56;100.00;103440.06;5240936;28;20031;-72
2022/01/21 10:39:17;;;;;;;13.85;4.13;;;;;;;4.66;100.00;103439.88;5241705;28;20049;-71
2022/01/21 10:41:48;;;;;;;8.95;3.40;;;;;;;4.81;100.00;103442.19;5240989;28;20080;-71
2022/01/21 10:44:20;;;;;;;12.70;3.53;;;;;;;4.93;100.00;103443.75;5242100;28;20650;-72
2022/01/21 10:47:07;;;;;;;15.25;4.53;;;;;;;5.19;100.00;103444.06;5241182;28;20025;-71
2022/01/21 10:49:40;;;;;;;12.52;3.83;;;;;;;5.28;100.00;103450.81;5265146;22;20150;-73
2022/01/21 10:52:15;;;;;;;14.30;3.20;;;;;;;5.34;100.00;103435.06;5287428;28;20122;-74
2022/01/21 10:54:51;;;;;;;11.13;3.25;;;;;;;5.43;100.00;103447.91;5293786;28;20016;-74
2022/01/21 10:57:22;;;;;;;11.38;3.50;;;;;;;5.47;100.00;103444.34;5295690;28;20024;-74
2022/01/21 11:00:00;;;;;;;13.05;3.70;;;;;;;5.61;100.00;103441.44;5294037;28;20081;-74
2022/01/21 11:02:32;;;;;;;19.02;4.07;;;;;;;5.57;100.00;103439.81;5282752;28;20508;-74
2022/01/21 11:05:15;;;;;;;13.85;3.05;;;;;;;5.70;100.00;103432.56;5286072;28;20054;-74
2022/01/21 11:07:49;;;;;;;13.40;3.40;;;;;;;5.61;100.00;103434.50;5284352;28;20036;-74
2022/01/21 11:10:32;;;;;;;;;;;;;;;6.00;100.00;103420.63;5285264;28;20027;-74
2022/01/21 11:13:24;;;;;;;11.57;3.60;;;;;;;5.81;100.00;103407.16;5289053;28;19916;-74
2022/01/21 11:15:58;;;;;;;13.00;3.90;;;;;;;5.69;100.00;103423.06;5287756;28;20039;-73
2022/01/21 11:18:31;;;;;;;17.92;4.68;;;;;;;5.73;100.00;103409.94;5284042;28;20020;-73
2022/01/21 11:21:07;;;;;;;15.87;3.63;;;;;;;5.88;100.00;103405.28;5289502;28;20042;-73
2022/01/21 11:23:38;;;;;;;18.52;5.45;;;;;;;5.91;100.00;103392.16;5277276;28;20770;-73
2022/01/21 11:26:14;;;;;;;13.52;4.18;;;;;;;6.03;100.00;103386.72;5285977;28;20032;-73
2022/01/21 11:28:49;;;;;;;21.23;4.70;;;;;;;6.08;100.00;103383.09;5283284;28;20085;-74
2022/01/21 11:31:23;;;;;;;15.98;4.15;;;;;;;6.13;100.00;103387.31;5284677;28;20032;-73
2022/01/21 11:33:55;;;;;;;11.70;3.85;;;;;;;6.15;100.00;103369.94;5277844;28;20119;-74
2022/01/21 11:36:26;;;;;;;17.77;4.22;;;;;;;6.19;100.00;103368.97;5284189;28;20035;-73
2022/01/21 11:38:58;;;;;;;17.30;5.07;;;;;;;6.23;100.00;103379.25;5282557;28;20027;-73
2022/01/21 11:41:31;;;;;;;13.98;3.85;;;;;;;6.25;100.00;103374.88;5283182;28;20054;-74
2022/01/21 11:44:04;;;;;;;12.80;4.20;;;;;;;6.24;100.00;103372.28;5286542;28;20347;-74
2022/01/21 11:46:39;;;;;;;13.75;3.67;;;;;;;6.20;100.00;103375.88;5284458;28;20494;-73
2022/01/21 11:49:19;;;;;;;14.50;3.65;;;;;;;6.28;100.00;103379.13;5283885;28;20503;-73
2022/01/21 11:52:18;;;;;;;14.23;3.88;;;;;;;6.35;100.00;103383.28;5285031;28;20052;-73
2022/01/21 11:54:51;;;;;;;10.20;3.05;;;;;;;6.20;100.00;103378.47;5287044;28;20036;-74
2022/01/21 11:57:28;;;;;;;15.90;4.50;;;;;;;6.29;100.00;103378.25;5284402;28;20040;-73
2022/01/21 12:00:16;;;;;;;19.25;4.13;;;;;;;6.25;100.00;103371.38;5286789;28;20021;-74
2022/01/21 12:02:51;;;;;;;13.98;4.20;;;;;;;6.31;100.00;103372.09;5281482;28;20165;-75
2022/01/21 12:05:27;;;;;;;13.85;3.80;;;;;;;6.32;100.00;103368.59;5285196;28;20070;-75
2022/01/21 12:07:59;;;;;;;14.05;3.30;;;;;;;6.30;100.00;103369.53;5284468;28;20084;-74
2022/01/21 12:10:33;;;;;;;12.68;3.30;;;;;;;6.34;100.00;103364.22;5283214;28;20374;-74
2022/01/21 12:13:07;;;;;;;17.60;4.35;;;;;;;6.40;100.00;103363.16;5285884;28;20052;-73
2022/01/21 12:15:48;;;;;;;15.23;3.58;;;;;;;6.38;100.00;103364.13;5283466;28;20028;-74
2022/01/21 12:18:53;;;;;;;13.73;3.78;;;;;;;6.44;100.00;103364.81;5287693;28;20029;-74
2022/01/21 12:21:34;;;;;;;15.05;3.47;;;;;;;6.39;100.00;103352.81;5284671;28;20094;-74
2022/01/21 12:24:08;;;;;;;14.95;3.42;;;;;;;6.31;100.00;103340.84;5283101;28;20044;-74
2022/01/21 12:27:00;;;;;;;12.90;3.55;;;;;;;6.49;100.00;103349.91;5279217;28;20024;-74
2022/01/21 12:29:32;;;;;;;14.32;3.50;;;;;;;6.31;100.00;103342.59;5286600;28;20388;-75
2022/01/21 12:32:15;;;;;;;11.20;3.70;;;;;;;6.34;100.00;103352.94;5283832;28;20020;-74
2022/01/21 12:35:08;;;;;;;12.10;3.95;;;;;;;6.55;100.00;103354.97;5288509;28;20064;-74